Time;durP1;ratioP1;P1;durP2;ratioP2;P2;SDS_P1;SDS_P2;PMS_P1;PMS_P2;Temp;Humidity;BMP_temperature;BMP_pressure;BME280_temperature;BME280_humidity;BME280_pressure;Samples;Min_cycle;Max_cycle;Signal;HPM_P1;HPM_P2
2023/01/01 00:01:28;;;;;;;370.63;235.90;;;4.70;99.90;;;;;;4970929;28;20267;-78
2023/01/01 00:03:59;;;;;;;344.00;213.52;;;4.60;99.90;;;;;;4951982;28;20039;-77
2023/01/01 00:06:27;;;;;;;317.48;199.18;;;4.60;99.90;;;;;;4969724;28;20444;-75
2023/01/01 00:11:35;;;;;;;294.17;176.90;;;4.70;99.90;;;;;;4968679;28;20059;-75
2023/01/01 00:14:03;;;;;;;285.42;173.07;;;4.80;99.90;;;;;;4952317;28;20139;-76
2023/01/01 00:16:30;;;;;;;298.92;183.68;;;4.80;99.90;;;;;;4952468;28;20500;-77
2023/01/01 00:18:59;;;;;;;274.17;166.23;;;4.80;99.90;;;;;;4968847;28;20542;-79
2023/01/01 00:21:27;;;;;;;299.88;184.63;;;4.80;99.90;;;;;;4969781;28;20042;-78
2023/01/01 00:23:54;;;;;;;326.77;199.88;;;4.70;99.90;;;;;;4968832;28;20106;-75
2023/01/01 00:26:22;;;;;;;250.85;149.88;;;4.70;99.90;;;;;;4970160;28;20039;-77
2023/01/01 00:28:49;;;;;;;228.73;134.40;;;4.80;99.90;;;;;;4969155;28;20053;-71
2023/01/01 00:31:20;;;;;;;227.45;134.82;;;4.90;99.90;;;;;;4973560;28;20472;-72
2023/01/01 00:33:51;;;;;;;253.18;148.48;;;5.00;99.90;;;;;;4973549;28;20047;-71
2023/01/01 00:36:22;;;;;;;251.23;152.82;;;5.00;99.90;;;;;;4974127;28;20046;-72
2023/01/01 00:38:50;;;;;;;300.48;177.23;;;4.90;99.90;;;;;;4978269;28;20043;-71
2023/01/01 00:41:18;;;;;;;289.50;172.25;;;4.80;99.90;;;;;;4977194;28;20065;-71
2023/01/01 00:43:46;;;;;;;319.48;189.82;;;4.80;99.90;;;;;;4972441;28;20043;-72
2023/01/01 00:46:13;;;;;;;310.67;189.88;;;4.70;99.90;;;;;;4973721;28;20043;-71
2023/01/01 00:48:41;;;;;;;318.52;192.68;;;4.70;99.90;;;;;;4973365;28;20059;-71
2023/01/01 00:51:09;;;;;;;316.33;193.65;;;4.70;99.90;;;;;;4973200;28;20043;-71
2023/01/01 00:53:38;;;;;;;285.05;170.90;;;4.60;99.90;;;;;;4971304;28;20039;-72
2023/01/01 00:56:06;;;;;;;270.60;161.52;;;4.60;99.90;;;;;;4973769;28;20047;-71
2023/01/01 00:58:34;;;;;;;302.33;189.55;;;4.60;99.90;;;;;;4973414;28;20045;-72
2023/01/01 01:01:01;;;;;;;301.45;189.05;;;4.60;99.90;;;;;;4973462;28;20109;-72
2023/01/01 01:03:29;;;;;;;304.95;194.40;;;4.60;99.90;;;;;;4972413;28;20042;-70
2023/01/01 01:05:58;;;;;;;311.25;198.40;;;4.60;99.90;;;;;;4973078;28;20514;-73
2023/01/01 01:08:26;;;;;;;298.58;190.55;;;4.60;99.90;;;;;;4972159;28;20043;-72
2023/01/01 01:10:55;;;;;;;299.85;189.32;;;4.50;99.90;;;;;;4972788;28;20042;-73
2023/01/01 01:13:22;;;;;;;299.00;194.55;;;4.50;99.90;;;;;;4955247;28;20380;-72
2023/01/01 01:15:50;;;;;;;307.92;209.73;;;4.50;99.90;;;;;;4972928;28;20494;-71
2023/01/01 01:18:18;;;;;;;299.23;204.50;;;4.30;99.90;;;;;;4971176;28;20051;-72
2023/01/01 01:20:51;;;;;;;286.58;194.77;;;4.30;99.90;;;;;;4972637;28;20095;-71
2023/01/01 01:23:19;;;;;;;270.20;179.23;;;4.20;99.90;;;;;;4971729;28;20051;-71
2023/01/01 01:25:48;;;;;;;249.82;164.18;;;4.30;99.90;;;;;;4972315;28;20089;-71
2023/01/01 01:28:17;;;;;;;254.70;168.93;;;4.30;99.90;;;;;;4972147;28;20517;-72
2023/01/01 01:30:44;;;;;;;238.52;152.88;;;4.40;99.90;;;;;;4972801;28;20046;-73
2023/01/01 01:33:12;;;;;;;214.82;136.43;;;4.30;99.90;;;;;;4972443;28;20046;-72
2023/01/01 01:35:40;;;;;;;193.75;124.70;;;4.30;99.90;;;;;;4970799;28;20149;-72
2023/01/01 01:38:07;;;;;;;214.05;139.70;;;4.40;99.90;;;;;;4954088;28;20043;-71
2023/01/01 01:40:35;;;;;;;202.20;135.23;;;4.30;99.90;;;;;;4971673;28;20094;-72
2023/01/01 01:43:02;;;;;;;199.43;129.88;;;4.20;99.90;;;;;;4972224;28;20039;-71
2023/01/01 01:45:31;;;;;;;185.27;122.32;;;4.10;99.90;;;;;;4972324;28;20435;-73
2023/01/01 01:47:59;;;;;;;170.07;116.80;;;4.10;99.90;;;;;;4971496;28;20129;-73
2023/01/01 01:50:31;;;;;;;170.10;110.75;;;4.10;99.90;;;;;;4971882;28;20406;-80
2023/01/01 01:53:05;;;;;;;165.90;104.88;;;4.10;99.90;;;;;;4971861;28;20038;-71
2023/01/01 01:55:36;;;;;;;195.43;117.15;;;4.10;99.90;;;;;;4972093;28;20078;-71
2023/01/01 01:58:04;;;;;;;204.05;125.00;;;4.10;99.90;;;;;;4972495;28;20043;-71
2023/01/01 02:00:36;;;;;;;248.25;141.00;;;4.10;99.90;;;;;;4972602;28;20042;-71
2023/01/01 02:03:07;;;;;;;255.55;141.38;;;4.10;99.90;;;;;;4973459;28;20046;-71
2023/01/01 02:05:36;;;;;;;248.63;140.02;;;4.10;99.90;;;;;;4973164;28;20050;-71
2023/01/01 02:08:05;;;;;;;261.17;145.57;;;4.10;99.90;;;;;;4981736;28;20047;-74
2023/01/01 02:10:32;;;;;;;259.67;148.02;;;4.10;99.90;;;;;;4980485;28;20047;-71
2023/01/01 02:13:00;;;;;;;269.88;149.15;;;4.10;99.90;;;;;;4978612;28;20047;-72
2023/01/01 02:15:32;;;;;;;260.63;146.00;;;4.10;99.90;;;;;;4955338;28;20414;-71
2023/01/01 02:18:04;;;;;;;243.35;138.07;;;4.10;99.90;;;;;;4970782;28;20054;-71
2023/01/01 02:20:41;;;;;;;244.98;135.65;;;4.10;99.90;;;;;;4973115;28;20046;-72
2023/01/01 02:23:31;;;;;;;236.40;136.32;;;4.10;99.90;;;;;;4973013;28;20086;-72
2023/01/01 02:26:16;;;;;;;206.95;120.65;;;4.10;99.90;;;;;;4971054;28;20047;-71
2023/01/01 02:28:53;;;;;;;214.82;122.78;;;4.10;99.90;;;;;;4970540;28;20522;-71
2023/01/01 02:31:26;;;;;;;206.82;122.95;;;4.10;99.90;;;;;;4971482;28;20039;-72
2023/01/01 02:33:59;;;;;;;215.10;126.53;;;4.00;99.90;;;;;;4971786;28;20039;-72
2023/01/01 02:36:28;;;;;;;241.05;136.38;;;4.00;99.90;;;;;;4970411;28;20101;-72
2023/01/01 02:38:58;;;;;;;262.55;148.43;;;4.00;99.90;;;;;;4952767;28;20061;-73
2023/01/01 02:41:30;;;;;;;271.60;153.88;;;3.90;99.90;;;;;;4970584;28;20049;-72
2023/01/01 02:43:59;;;;;;;222.85;126.20;;;3.80;99.90;;;;;;4971086;28;20039;-73
2023/01/01 02:46:32;;;;;;;218.55;128.60;;;3.80;99.90;;;;;;4967651;28;20157;-72
2023/01/01 02:49:00;;;;;;;230.25;132.60;;;3.90;99.90;;;;;;4970410;28;20046;-72
2023/01/01 02:51:35;;;;;;;232.98;133.80;;;3.90;99.90;;;;;;4970456;28;20152;-73
2023/01/01 02:54:12;;;;;;;235.18;128.38;;;3.90;99.90;;;;;;4970622;28;20054;-73
2023/01/01 02:56:45;;;;;;;240.85;137.48;;;3.90;99.90;;;;;;4971278;28;20038;-72
2023/01/01 03:02:17;;;;;;;225.38;127.22;;;3.80;99.90;;;;;;4970507;28;20507;-72
2023/01/01 03:04:55;;;;;;;217.60;125.20;;;3.80;99.90;;;;;;4970445;28;20043;-72
2023/01/01 03:07:30;;;;;;;210.55;122.75;;;3.80;99.90;;;;;;4970571;28;20047;-72
2023/01/01 03:10:01;;;;;;;;;;;3.80;99.90;;;;;;4970002;28;20074;-71
2023/01/01 03:12:39;;;;;;;210.38;126.97;;;3.80;99.90;;;;;;4970677;28;19989;-71
2023/01/01 03:15:19;;;;;;;189.63;119.53;;;3.80;99.90;;;;;;4970119;28;20523;-71
2023/01/01 03:17:55;;;;;;;207.20;126.85;;;3.70;99.90;;;;;;4970196;28;20043;-73
2023/01/01 03:20:27;;;;;;;213.23;126.15;;;3.70;99.90;;;;;;4970108;28;20494;-70
2023/01/01 03:22:59;;;;;;;201.27;120.28;;;3.70;99.90;;;;;;4949457;28;20055;-74
2023/01/01 03:25:31;;;;;;;215.73;121.35;;;3.70;99.90;;;;;;4950636;29;20059;-73
2023/01/01 03:28:02;;;;;;;197.98;117.53;;;3.70;99.90;;;;;;4950159;28;20349;-71
2023/01/01 03:30:35;;;;;;;220.40;124.00;;;3.70;99.90;;;;;;4950496;29;20324;-72
2023/01/01 03:33:08;;;;;;;264.42;143.50;;;3.70;99.90;;;;;;4951603;29;20057;-71
2023/01/01 03:35:43;;;;;;;217.80;124.00;;;3.60;99.90;;;;;;4950724;29;20127;-71
2023/01/01 03:38:15;;;;;;;182.50;108.50;;;3.50;99.90;;;;;;4950669;28;20051;-71
2023/01/01 03:40:45;;;;;;;186.23;111.20;;;3.60;99.90;;;;;;4951077;29;20496;-73
2023/01/01 03:43:17;;;;;;;182.75;107.40;;;3.50;99.90;;;;;;4951999;29;20528;-72
2023/01/01 03:45:50;;;;;;;174.43;106.03;;;3.50;99.90;;;;;;4950656;29;20051;-71
2023/01/01 03:48:18;;;;;;;184.10;109.60;;;3.50;99.90;;;;;;4951138;29;20381;-72
2023/01/01 03:50:56;;;;;;;163.80;98.30;;;3.50;99.90;;;;;;4949768;29;20680;-72
2023/01/01 03:53:34;;;;;;;142.90;87.45;;;3.60;99.90;;;;;;4950959;29;20139;-71
2023/01/01 03:56:11;;;;;;;150.95;88.35;;;3.60;99.90;;;;;;4950378;29;20047;-71
2023/01/01 03:58:45;;;;;;;147.13;89.15;;;3.60;99.90;;;;;;4952010;29;20499;-71
2023/01/01 04:01:20;;;;;;;148.40;87.30;;;3.60;99.90;;;;;;4954272;29;20055;-71
2023/01/01 04:03:49;;;;;;;144.18;82.95;;;3.60;99.90;;;;;;4954235;28;20402;-70
2023/01/01 04:06:16;;;;;;;126.97;73.57;;;3.60;99.90;;;;;;4954942;29;20047;-73
2023/01/01 04:08:45;;;;;;;128.98;72.03;;;3.40;99.90;;;;;;4954574;28;20062;-73
2023/01/01 04:14:03;;;;;;;116.53;69.53;;;3.30;99.90;;;;;;4955987;29;20054;-71
2023/01/01 04:16:32;;;;;;;131.85;77.38;;;3.40;99.90;;;;;;4958305;29;20538;-72
2023/01/01 04:18:59;;;;;;;143.68;84.25;;;3.40;99.90;;;;;;4954433;29;20497;-72
2023/01/01 04:21:26;;;;;;;160.25;91.13;;;3.40;99.90;;;;;;4955980;28;20109;-73
2023/01/01 04:23:54;;;;;;;143.93;83.78;;;3.40;99.90;;;;;;4969349;28;20502;-73
2023/01/01 04:26:21;;;;;;;151.02;87.05;;;3.40;99.90;;;;;;4975604;28;20435;-72
2023/01/01 04:28:49;;;;;;;129.90;78.72;;;3.40;99.90;;;;;;4973067;28;20043;-72
2023/01/01 04:31:17;;;;;;;137.55;84.10;;;3.40;99.90;;;;;;4974338;28;20460;-72
2023/01/01 04:33:46;;;;;;;139.55;85.68;;;3.50;99.90;;;;;;4973662;28;20074;-72
2023/01/01 04:36:14;;;;;;;147.25;87.00;;;3.50;99.90;;;;;;4975934;28;20035;-72
2023/01/01 04:38:41;;;;;;;152.10;84.75;;;3.50;99.90;;;;;;4975500;28;20070;-71
2023/01/01 04:41:09;;;;;;;147.02;85.03;;;3.40;99.90;;;;;;4973403;28;20395;-73
2023/01/01 04:43:37;;;;;;;155.25;88.38;;;3.40;99.90;;;;;;4974164;28;20050;-73
2023/01/01 04:46:04;;;;;;;158.77;94.00;;;3.30;99.90;;;;;;4972844;28;20064;-72
2023/01/01 04:48:35;;;;;;;158.95;92.55;;;3.20;99.90;;;;;;4973045;28;20071;-72
2023/01/01 04:51:05;;;;;;;153.75;89.30;;;3.10;99.90;;;;;;4972687;28;20042;-72
2023/01/01 04:53:34;;;;;;;138.43;84.15;;;3.10;99.90;;;;;;4973241;28;20479;-73
2023/01/01 04:56:04;;;;;;;129.73;75.88;;;3.10;99.90;;;;;;4972877;28;20078;-71
2023/01/01 04:58:32;;;;;;;119.53;72.07;;;3.20;99.90;;;;;;4972670;28;20050;-72
2023/01/01 05:01:00;;;;;;;119.75;70.60;;;3.30;99.90;;;;;;4972788;28;20074;-73
2023/01/01 05:03:27;;;;;;;114.53;69.95;;;3.30;99.90;;;;;;4972698;28;20111;-72
2023/01/01 05:06:04;;;;;;;121.50;77.63;;;3.30;99.90;;;;;;4971793;28;20093;-72
2023/01/01 05:08:32;;;;;;;127.53;78.20;;;3.20;99.90;;;;;;4972110;28;20046;-72
2023/01/01 05:11:01;;;;;;;121.40;75.93;;;3.20;99.90;;;;;;4972797;28;20062;-72
2023/01/01 05:13:28;;;;;;;125.03;78.20;;;3.20;99.90;;;;;;4972241;28;20046;-71
2023/01/01 05:15:56;;;;;;;125.78;78.40;;;3.20;99.90;;;;;;4971928;28;20038;-73
2023/01/01 05:18:24;;;;;;;114.05;70.57;;;3.20;99.90;;;;;;4971857;28;20045;-73
2023/01/01 05:20:51;;;;;;;110.57;68.32;;;3.20;99.90;;;;;;4954893;28;20146;-71
2023/01/01 05:23:20;;;;;;;126.95;81.25;;;3.10;99.90;;;;;;4972290;28;20150;-72
2023/01/01 05:25:48;;;;;;;108.50;67.75;;;3.10;99.90;;;;;;4971972;28;20049;-71
2023/01/01 05:28:15;;;;;;;109.88;67.50;;;3.10;99.90;;;;;;4972134;28;20045;-72
2023/01/01 05:30:42;;;;;;;115.50;68.75;;;3.20;99.90;;;;;;4972500;28;20049;-71
2023/01/01 05:33:11;;;;;;;111.57;64.60;;;3.30;99.90;;;;;;4954856;28;20050;-73
2023/01/01 05:35:39;;;;;;;120.35;68.65;;;3.30;99.90;;;;;;4972050;28;20038;-72
2023/01/01 05:38:06;;;;;;;117.05;66.80;;;3.30;99.90;;;;;;4971473;28;20058;-72
2023/01/01 05:40:38;;;;;;;115.35;67.15;;;3.20;99.90;;;;;;4971502;28;20039;-71
2023/01/01 05:43:05;;;;;;;113.93;64.55;;;3.20;99.90;;;;;;4972064;28;20121;-72
2023/01/01 05:45:33;;;;;;;110.93;65.75;;;3.20;99.90;;;;;;4972293;28;20050;-72
2023/01/01 05:48:00;;;;;;;114.70;65.18;;;3.20;99.90;;;;;;4971391;28;20498;-72
2023/01/01 05:50:27;;;;;;;110.05;65.32;;;3.20;99.90;;;;;;4971231;28;20055;-71
2023/01/01 05:52:55;;;;;;;115.68;65.13;;;3.10;3.50;;;;;;4971981;28;20047;-73
2023/01/01 05:55:22;;;;;;;118.18;66.90;;;3.10;89.20;;;;;;4972067;28;20066;-72
2023/01/01 05:57:51;;;;;;;121.90;68.43;;;3.10;1.00;;;;;;4970631;28;20511;-71
2023/01/01 06:00:19;;;;;;;112.32;64.05;;;3.10;1.00;;;;;;4971099;28;20049;-72
2023/01/01 06:02:48;;;;;;;115.15;67.63;;;3.00;99.90;;;;;;4970225;28;20046;-72
2023/01/01 06:05:16;;;;;;;107.25;65.25;;;3.00;1.00;;;;;;4970249;28;20047;-73
2023/01/01 06:07:43;;;;;;;105.40;62.03;;;3.00;1.00;;;;;;4971527;28;20066;-72
2023/01/01 06:10:11;;;;;;;116.88;62.53;;;3.00;99.90;;;;;;4970541;28;20658;-72
2023/01/01 06:12:38;;;;;;;110.07;64.75;;;3.10;99.90;;;;;;4971850;28;20047;-72
2023/01/01 06:15:09;;;;;;;110.07;65.93;;;3.10;99.90;;;;;;4971459;28;20494;-71
2023/01/01 06:17:36;;;;;;;106.60;62.95;;;3.20;99.90;;;;;;4971794;28;20043;-73
2023/01/01 06:20:04;;;;;;;118.60;65.50;;;3.20;99.90;;;;;;4953771;28;20387;-72
2023/01/01 06:22:32;;;;;;;113.45;63.65;;;3.20;99.90;;;;;;4971412;28;20055;-72
2023/01/01 06:24:59;;;;;;;117.72;66.53;;;3.20;1.00;;;;;;4971477;28;20035;-72
2023/01/01 06:27:27;;;;;;;120.80;70.32;;;3.20;1.00;;;;;;4971597;28;20126;-73
2023/01/01 06:29:56;;;;;;;134.98;78.95;;;3.20;99.90;;;;;;4953164;28;20042;-71
2023/01/01 06:32:27;;;;;;;144.95;83.53;;;3.00;1.00;;;;;;4954326;28;20039;-72
2023/01/01 06:34:55;;;;;;;125.18;76.22;;;3.10;1.00;;;;;;4970904;28;20046;-73
2023/01/01 06:37:22;;;;;;;119.00;71.47;;;3.10;99.90;;;;;;4974821;28;20045;-72
2023/01/01 06:39:50;;;;;;;108.65;65.20;;;3.20;99.90;;;;;;4978028;28;20045;-72
2023/01/01 06:42:18;;;;;;;107.72;63.20;;;3.20;99.90;;;;;;4971272;28;20067;-73
2023/01/01 06:44:45;;;;;;;103.05;59.55;;;3.30;99.90;;;;;;4970774;28;20042;-72
2023/01/01 06:47:13;;;;;;;102.40;63.83;;;3.30;99.90;;;;;;4970937;28;20046;-72
2023/01/01 06:49:42;;;;;;;103.68;64.85;;;3.30;99.90;;;;;;4970197;28;20145;-71
2023/01/01 06:52:10;;;;;;;107.53;66.78;;;3.20;1.00;;;;;;4970339;28;20414;-72
2023/01/01 06:54:38;;;;;;;105.38;63.88;;;3.20;1.00;;;;;;4970995;28;20046;-73
2023/01/01 06:57:06;;;;;;;102.05;63.25;;;3.20;1.00;;;;;;4970426;28;20043;-73
2023/01/01 06:59:33;;;;;;;102.18;63.40;;;3.20;99.90;;;;;;4968886;28;20491;-72
2023/01/01 07:02:01;;;;;;;112.03;72.30;;;3.10;1.00;;;;;;4971297;28;20098;-73
2023/01/01 07:04:28;;;;;;;130.73;80.80;;;3.10;99.90;;;;;;4970570;28;20718;-72
2023/01/01 07:06:57;;;;;;;124.28;80.82;;;3.10;99.90;;;;;;4952630;28;20129;-72
2023/01/01 07:09:25;;;;;;;139.65;90.03;;;3.20;99.90;;;;;;4969766;28;20098;-71
2023/01/01 07:11:52;;;;;;;152.98;95.80;;;3.20;91.40;;;;;;4971647;28;20054;-73
2023/01/01 07:14:20;;;;;;;129.73;83.68;;;3.20;1.00;;;;;;4974311;28;20065;-71
2023/01/01 07:16:47;;;;;;;142.52;88.38;;;3.30;39.60;;;;;;4971856;28;20047;-72
2023/01/01 07:19:14;;;;;;;137.50;84.53;;;3.40;51.00;;;;;;4952119;28;20059;-72
2023/01/01 07:21:44;;;;;;;126.30;73.82;;;3.50;1.00;;;;;;4971923;28;20070;-72
2023/01/01 07:24:14;;;;;;;107.45;66.70;;;3.60;1.00;;;;;;4975363;28;20065;-72
2023/01/01 07:26:42;;;;;;;125.35;74.03;;;3.60;1.00;;;;;;4975054;28;20035;-72
2023/01/01 07:29:11;;;;;;;109.13;69.00;;;3.70;17.10;;;;;;4970181;28;20046;-72
2023/01/01 07:31:41;;;;;;;108.30;68.43;;;3.80;99.90;;;;;;4971505;28;20042;-71
2023/01/01 07:34:12;;;;;;;107.57;65.85;;;3.80;99.90;;;;;;4970028;28;20050;-72
2023/01/01 07:36:40;;;;;;;109.47;68.63;;;3.90;99.90;;;;;;4969182;28;20047;-72
2023/01/01 07:39:07;;;;;;;103.55;63.50;;;4.10;99.90;;;;;;4970047;28;20039;-72
2023/01/01 07:41:37;;;;;;;98.75;61.42;;;4.20;92.60;;;;;;4968013;28;20410;-72
2023/01/01 07:44:04;;;;;;;101.85;62.70;;;4.30;1.00;;;;;;4970558;28;20043;-73
2023/01/01 07:46:34;;;;;;;107.00;67.22;;;4.40;99.90;;;;;;4970136;28;20045;-73
2023/01/01 07:49:02;;;;;;;108.13;66.30;;;4.50;1.00;;;;;;4969241;28;20054;-72
2023/01/01 07:51:30;;;;;;;112.75;66.10;;;4.70;1.00;;;;;;4970514;28;20074;-72
2023/01/01 07:53:57;;;;;;;95.55;59.58;;;4.80;99.90;;;;;;4969506;28;20043;-73
2023/01/01 07:56:25;;;;;;;99.30;63.80;;;4.90;38.80;;;;;;4970544;28;20141;-73
2023/01/01 07:58:54;;;;;;;102.22;66.03;;;5.00;1.00;;;;;;4952168;28;20149;-73
2023/01/01 08:01:22;;;;;;;129.98;76.90;;;5.20;99.90;;;;;;4952383;28;20150;-71
2023/01/01 08:03:52;;;;;;;109.35;70.75;;;5.30;1.00;;;;;;4969076;28;20045;-73
2023/01/01 08:06:21;;;;;;;111.43;70.70;;;5.30;1.00;;;;;;4969561;28;20039;-73
2023/01/01 08:08:49;;;;;;;117.13;73.75;;;5.50;1.00;;;;;;4968321;28;20041;-72
2023/01/01 08:11:17;;;;;;;121.45;75.55;;;5.60;99.90;;;;;;4970372;28;20105;-72
2023/01/01 08:13:44;;;;;;;113.72;72.30;;;5.80;1.00;;;;;;4969987;28;20039;-73
2023/01/01 08:16:13;;;;;;;108.70;66.70;;;5.90;35.80;;;;;;4969667;28;20247;-72
2023/01/01 08:18:41;;;;;;;98.63;64.20;;;5.90;99.90;;;;;;4969262;28;20163;-73
2023/01/01 08:21:09;;;;;;;117.20;74.40;;;6.00;99.90;;;;;;4969600;28;20050;-72
2023/01/01 08:23:36;;;;;;;120.97;77.57;;;6.00;1.00;;;;;;4939795;28;20056;-73
2023/01/01 08:26:04;;;;;;;110.80;71.70;;;6.10;1.00;;;;;;4959418;28;20058;-72
2023/01/01 08:28:31;;;;;;;111.57;69.07;;;6.30;1.00;;;;;;4970240;28;20038;-71
2023/01/01 08:30:59;;;;;;;107.65;66.68;;;6.40;99.90;;;;;;4970455;28;20139;-72
2023/01/01 08:33:31;;;;;;;93.45;61.85;;;6.50;34.90;;;;;;4970125;28;20039;-72
2023/01/01 08:35:58;;;;;;;92.90;61.55;;;6.70;1.00;;;;;;4969859;28;20077;-71
2023/01/01 08:38:26;;;;;;;98.43;64.40;;;6.80;1.00;;;;;;4952358;28;20491;-71
2023/01/01 08:40:54;;;;;;;96.13;64.82;;;6.90;99.90;;;;;;4971100;28;20470;-73
2023/01/01 08:43:21;;;;;;;110.68;71.57;;;6.90;1.00;;;;;;4969888;28;20047;-71
2023/01/01 08:45:50;;;;;;;101.60;70.30;;;7.00;1.00;;;;;;4970749;28;20035;-72
2023/01/01 08:48:17;;;;;;;110.93;73.18;;;7.10;1.00;;;;;;4970800;28;20061;-72
2023/01/01 08:50:53;;;;;;;110.53;72.45;;;7.10;9.10;;;;;;4970181;28;20046;-71
2023/01/01 08:53:20;;;;;;;114.82;72.88;;;7.30;1.00;;;;;;4974118;28;20038;-73
2023/01/01 08:55:56;;;;;;;108.35;74.60;;;7.40;1.00;;;;;;4956116;28;20061;-72
2023/01/01 08:58:23;;;;;;;102.40;67.45;;;7.60;40.80;;;;;;4972663;28;20555;-71
2023/01/01 09:00:51;;;;;;;84.47;57.50;;;7.70;99.90;;;;;;4972016;28;20045;-70
2023/01/01 09:03:18;;;;;;;92.72;61.08;;;7.90;99.90;;;;;;4972849;28;20038;-72
2023/01/01 09:05:47;;;;;;;93.47;57.90;;;8.00;1.00;;;;;;4973501;28;20436;-72
2023/01/01 09:08:15;;;;;;;79.45;52.90;;;8.10;99.90;;;;;;4972439;28;20043;-72
2023/01/01 09:10:44;;;;;;;46.97;34.65;;;8.30;99.90;;;;;;4970981;28;20043;-71
2023/01/01 09:13:12;;;;;;;58.92;37.53;;;8.40;1.00;;;;;;4972764;28;20094;-72
2023/01/01 09:15:40;;;;;;;62.88;40.03;;;8.60;1.00;;;;;;4973137;28;20487;-72
2023/01/01 09:18:08;;;;;;;74.97;49.58;;;8.80;1.00;;;;;;4972358;28;20045;-71
2023/01/01 09:20:35;;;;;;;95.07;62.97;;;8.90;99.90;;;;;;4972590;28;20047;-71
2023/01/01 09:23:05;;;;;;;82.82;53.78;;;9.00;1.00;;;;;;4972521;28;20621;-71
2023/01/01 09:25:33;;;;;;;63.92;42.75;;;9.20;1.00;;;;;;4972428;28;20042;-73
2023/01/01 09:28:02;;;;;;;68.65;46.63;;;9.30;99.90;;;;;;4970124;28;20051;-72
2023/01/01 09:30:29;;;;;;;66.60;45.15;;;9.40;99.90;;;;;;4971794;28;20140;-72
2023/01/01 09:32:57;;;;;;;65.72;45.55;;;9.50;99.90;;;;;;4971812;28;20061;-72
2023/01/01 09:35:24;;;;;;;78.03;52.15;;;9.60;1.00;;;;;;4970677;28;20045;-71
2023/01/01 09:37:52;;;;;;;74.25;50.72;;;9.70;1.00;;;;;;4970352;28;20031;-72
2023/01/01 09:40:32;;;;;;;71.57;48.10;;;9.90;1.00;;;;;;4974288;28;20130;-71
2023/01/01 09:43:09;;;;;;;68.88;47.03;;;10.00;1.00;;;;;;4973636;28;20042;-71
2023/01/01 09:45:43;;;;;;;67.03;47.05;;;10.10;99.90;;;;;;4972499;28;20428;-73
2023/01/01 09:48:16;;;;;;;66.95;46.60;;;10.30;99.90;;;;;;4975972;28;20129;-71
2023/01/01 09:50:45;;;;;;;65.95;44.88;;;10.40;99.90;;;;;;4977967;28;20039;-72
2023/01/01 09:53:18;;;;;;;58.00;40.47;;;10.50;34.60;;;;;;4973506;28;20093;-70
2023/01/01 09:55:50;;;;;;;84.47;59.80;;;10.70;1.00;;;;;;4976316;28;20050;-71
2023/01/01 09:58:23;;;;;;;55.55;36.08;;;10.80;1.00;;;;;;4974494;28;20374;-72
2023/01/01 10:00:54;;;;;;;47.17;32.67;;;11.00;1.00;;;;;;4973988;28;20137;-71
2023/01/01 10:03:35;;;;;;;51.45;34.22;;;11.10;1.00;;;;;;4970386;28;20065;-71
2023/01/01 10:06:21;;;;;;;55.88;37.13;;;11.20;1.00;;;;;;4972760;28;20046;-73
2023/01/01 10:09:12;;;;;;;53.78;36.30;;;11.40;1.00;;;;;;4971930;28;20050;-71
2023/01/01 10:11:50;;;;;;;55.00;37.00;;;11.50;1.00;;;;;;4973713;28;20043;-72
2023/01/01 10:14:23;;;;;;;53.03;35.75;;;11.60;1.00;;;;;;4972281;28;20483;-71
2023/01/01 10:16:55;;;;;;;54.80;36.83;;;11.70;1.00;;;;;;4969816;28;20050;-73
2023/01/01 10:19:30;;;;;;;52.20;36.55;;;11.90;99.90;;;;;;4971346;28;20039;-72
2023/01/01 10:22:04;;;;;;;56.67;36.75;;;11.90;99.90;;;;;;4971209;28;20575;-71
2023/01/01 10:24:38;;;;;;;56.65;38.22;;;12.10;99.90;;;;;;4971345;28;20043;-72
2023/01/01 10:27:09;;;;;;;56.13;38.22;;;12.20;99.90;;;;;;4972137;28;20047;-70
2023/01/01 10:29:42;;;;;;;63.05;41.85;;;12.30;99.90;;;;;;4972149;28;20414;-70
2023/01/01 10:32:19;;;;;;;67.72;43.97;;;12.40;99.90;;;;;;4971725;28;20048;-71
2023/01/01 10:34:47;;;;;;;74.22;46.63;;;12.50;99.90;;;;;;4970888;28;20573;-71
2023/01/01 10:37:15;;;;;;;79.40;50.33;;;12.60;99.90;;;;;;4971340;28;20047;-72
2023/01/01 10:39:43;;;;;;;78.32;51.85;;;12.70;99.90;;;;;;4970803;28;20418;-73
2023/01/01 10:42:13;;;;;;;80.07;52.63;;;12.80;45.00;;;;;;4972651;28;20081;-71
2023/01/01 10:44:42;;;;;;;80.93;53.05;;;12.80;11.80;;;;;;4975584;28;20094;-71
2023/01/01 10:47:27;;;;;;;81.35;53.60;;;12.90;1.00;;;;;;4972748;28;20046;-72
2023/01/01 10:49:56;;;;;;;85.07;54.80;;;12.90;1.00;;;;;;4975977;28;20051;-71
2023/01/01 10:52:30;;;;;;;94.43;58.95;;;13.00;1.00;;;;;;4975065;28;20182;-72
2023/01/01 10:54:58;;;;;;;86.80;58.00;;;13.10;1.00;;;;;;4985723;28;20073;-72
2023/01/01 10:57:36;;;;;;;89.28;56.38;;;13.10;1.00;;;;;;4988162;28;20047;-73
2023/01/01 11:00:22;;;;;;;87.43;54.67;;;13.20;1.00;;;;;;4961006;28;20050;-73
2023/01/01 11:03:06;;;;;;;;;;;13.30;1.00;;;;;;4983075;28;20058;-72
2023/01/01 11:05:33;;;;;;;79.75;49.42;;;13.40;1.00;;;;;;4979803;28;19969;-73
2023/01/01 11:08:01;;;;;;;67.05;42.45;;;13.50;1.00;;;;;;4970623;28;20042;-71
2023/01/01 11:10:30;;;;;;;64.65;41.97;;;13.60;1.00;;;;;;4971491;28;20043;-71
2023/01/01 11:12:59;;;;;;;64.18;43.38;;;13.60;1.00;;;;;;4970401;28;20058;-71
2023/01/01 11:15:37;;;;;;;64.20;41.33;;;13.60;1.00;;;;;;4978866;28;20045;-72
2023/01/01 11:18:08;;;;;;;64.45;42.50;;;13.70;1.00;;;;;;4971002;28;20119;-71
2023/01/01 11:20:35;;;;;;;63.85;40.63;;;13.80;1.00;;;;;;4968283;28;20042;-72
2023/01/01 11:23:19;;;;;;;66.43;40.88;;;13.80;1.00;;;;;;4970288;28;20043;-71
2023/01/01 11:25:59;;;;;;;61.83;41.60;;;13.90;1.00;;;;;;4970745;28;20043;-72
2023/01/01 11:28:30;;;;;;;59.28;39.30;;;14.00;1.00;;;;;;4969768;28;20047;-72
2023/01/01 11:31:14;;;;;;;59.90;40.97;;;14.00;1.00;;;;;;4952175;28;20544;-72
2023/01/01 11:33:46;;;;;;;61.28;41.30;;;14.10;1.00;;;;;;4970389;28;20121;-72
2023/01/01 11:36:22;;;;;;;60.80;41.28;;;14.10;1.00;;;;;;4970163;28;20074;-71
2023/01/01 11:38:50;;;;;;;;;;;14.10;1.00;;;;;;4970305;28;20047;-70
2023/01/01 11:41:18;;;;;;;74.03;48.75;;;14.20;1.00;;;;;;4970686;28;19922;-71
2023/01/01 11:43:48;;;;;;;83.28;52.35;;;14.20;1.00;;;;;;4952363;28;20073;-71
2023/01/01 11:46:22;;;;;;;74.18;48.95;;;14.30;1.00;;;;;;4969980;28;20053;-71
2023/01/01 11:48:51;;;;;;;73.95;49.22;;;14.40;1.00;;;;;;4969820;28;20070;-73
2023/01/01 11:51:30;;;;;;;67.93;47.40;;;14.40;1.00;;;;;;4970958;28;20046;-72
2023/01/01 11:54:20;;;;;;;80.05;53.75;;;14.40;1.00;;;;;;4970076;28;20125;-71
2023/01/01 11:56:52;;;;;;;88.60;59.03;;;14.50;1.00;;;;;;4970143;28;20533;-72
2023/01/01 11:59:25;;;;;;;91.85;61.25;;;14.50;1.00;;;;;;4970115;28;20039;-71
2023/01/01 12:01:56;;;;;;;84.28;58.00;;;14.50;1.00;;;;;;4970071;28;20105;-72
2023/01/01 12:04:29;;;;;;;86.68;58.90;;;14.60;1.00;;;;;;4970023;28;20047;-72
2023/01/01 12:07:05;;;;;;;85.97;55.47;;;14.60;1.00;;;;;;4969932;28;20094;-71
2023/01/01 12:09:40;;;;;;;74.80;50.50;;;14.70;1.00;;;;;;4969468;28;20039;-71
2023/01/01 12:12:13;;;;;;;68.95;47.97;;;14.70;1.00;;;;;;4970666;28;20541;-71
2023/01/01 12:14:48;;;;;;;68.15;45.17;;;14.70;1.00;;;;;;4970342;28;20038;-71
2023/01/01 12:17:22;;;;;;;68.38;45.70;;;14.70;1.00;;;;;;4970376;28;20050;-72
2023/01/01 12:19:58;;;;;;;73.03;47.45;;;14.70;1.00;;;;;;4969589;28;20042;-71
2023/01/01 12:22:25;;;;;;;;;;;14.80;1.00;;;;;;4972207;28;20050;-71
2023/01/01 12:24:54;;;;;;;84.72;58.75;;;14.90;1.00;;;;;;4974340;28;19933;-71
2023/01/01 12:27:40;;;;;;;85.40;57.63;;;14.90;1.00;;;;;;4982013;28;20058;-71
2023/01/01 12:30:21;;;;;;;81.22;54.22;;;14.90;1.00;;;;;;4974350;28;20043;-71
2023/01/01 12:33:18;;;;;;;83.63;56.17;;;15.00;1.00;;;;;;4972994;28;20097;-72
2023/01/01 12:35:57;;;;;;;79.20;55.38;;;15.00;1.00;;;;;;4966874;28;20510;-72
2023/01/01 12:38:41;;;;;;;78.50;53.42;;;15.10;1.00;;;;;;4973164;28;20043;-71
2023/01/01 12:41:12;;;;;;;80.15;53.28;;;15.10;1.00;;;;;;4972952;28;20042;-71
2023/01/01 12:43:49;;;;;;;80.70;52.08;;;15.10;1.00;;;;;;4973502;28;20031;-71
2023/01/01 12:46:35;;;;;;;67.65;48.33;;;15.10;1.00;;;;;;4973378;28;20050;-71
2023/01/01 12:49:25;;;;;;;62.50;46.50;;;15.20;1.00;;;;;;4972614;28;20046;-69
2023/01/01 12:52:04;;;;;;;60.75;41.42;;;15.20;1.00;;;;;;4972917;28;20050;-71
2023/01/01 12:55:07;;;;;;;62.90;42.40;;;15.20;1.00;;;;;;4972769;28;20046;-71
2023/01/01 12:57:39;;;;;;;64.93;44.03;;;15.20;1.00;;;;;;4972986;28;20037;-71